Tiempo atmosférico en la estación meteorológica de Sabiñanigo, Huesca (775 m.)



Fecha
DESCASC
Temp. máxima en grados centígrados (hora)
DESCASC
Temp. mínima en grados centígrados (hora)
DESCASC
Temp. media en grados centígrados
DESCASC
Racha de viento máxima en m/sg (hora)
DESCASC
Velocidad máxima media en intervalos de 10 minutos(hora)
DESCASC
Precipitaciones diarias en mm
DESCASC
Precipitaciones de 00:00 a 06:00 en mm
DESCASC
Precipitaciones de 06:00 a 12:00 en mm
DESCASC
Precipitaciones de 12:00 a 18:00 en mm
DESCASC
Precipitaciones de 18:00 a 24:00 en mm
DESCASC
13-01-2021 8.5 (15:30) -10.8 (07:10) -1.2 3.06 (05:40) 1.39 (13:50) 0 0 0 0 0
12-01-2021 6 (15:10) -15 (08:00) -4.5 2.78 (22:50) 1.67 (17:50) 0 0 0 0 0
11-01-2021 4.3 (15:30) -12.4 (23:59) -4 2.78 (18:00) 1.39 (18:00) 0 0 0 0 0
10-01-2021 2.8 (14:00) -3.1 (23:50) -0.1 2.5 (17:30) 1.39 (15:50) 2.8 2 0.4 0.4 0
09-01-2021 -0.4 (14:40) -3.1 (-00:0) -1.7 3.33 (02:20) 1.67 (02:20) 12.2 0.4 3.2 5 3.6
08-01-2021 1.1 (15:20) -13.9 (-00:0) -6.4 2.5 (23:40) 1.39 (01:20) 0 0 0 0 0
07-01-2021 -0.5 (15:00) -10.8 (-00:0) -5.7 2.5 (15:50) 1.94 (14:00) 0 0 0 0 0
06-01-2021 2.8 (15:10) -10.8 (-00:0) -4 3.33 (15:40) 2.22 (15:20) 0 0 0 0 0
05-01-2021 2 (13:40) -7.8 (-00:0) -2.9 5.28 (16:30) 2.78 (16:40) 0 0 0 0 0
04-01-2021 1.4 (14:50) -2 (-00:0) -0.3 5 (16:00) 2.78 (16:00) 2 0 0.4 1.4 0.2
03-01-2021 5.2 (14:50) -7.2 (-00:0) -1 7.5 (16:40) 4.17 (17:00) 0 0 0 0 0
02-01-2021 4.8 (13:50) -3.4 (-00:0) 0.7 8.89 (20:30) 4.44 (20:30) 0 0 0 0 0
01-01-2021 4.5 (16:00) -0.6 (-00:0) 1.9 5.83 (17:00) 3.06 (17:10) 0 0 0 0 0
31-12-2020 3.7 (15:00) 0.4 (00:00) 2.1 2.5 (19:00) 1.39 (16:00) 3.8 0 0 2.2 1.6
30-12-2020 4.3 (15:20) -0.4 (00:00) 2 7.22 (02:50) 3.89 (14:30) 3.4 2.6 0.8 0 0
29-12-2020 4.3 (13:50) -0.2 (00:00) 2.1 8.06 (14:30) 4.44 (15:00) 0.4 0.4 0 0 0
28-12-2020 2.5 (12:00) 0 (00:00) 1.3 9.17 (09:10) 4.17 (09:10) 23.4 13.4 0.2 5.6 4.2
27-12-2020 1.9 (15:50) -6 (-00:0) -2.1 3.61 (23:30) 1.94 (23:30) 1 0 0 0 1
26-12-2020 7.4 (14:30) -4.9 (-00:0) 1.3 16.67 (01:40) 10.28 (01:40) 0 0 0 0 0
25-12-2020 4.5 (14:00) -0.8 (-00:0) 1.8 11.94 (06:30) 6.39 (15:30) 0 0 0 0 0
24-12-2020 9.5 (15:20) 2.8 (00:00) 6.1 7.5 (15:50) 3.89 (13:50) 0 0 0 0 0
23-12-2020 16.6 (14:50) 2.3 (00:00) 9.5 3.89 (16:30) 1.94 (16:30) 0 0 0 0 0
22-12-2020 14.5 (16:10) 0.5 (00:00) 7.5 3.89 (13:30) 2.22 (13:30) 0 0 0 0 0
21-12-2020 8.8 (15:10) 0.1 (00:00) 4.5 2.78 (16:30) 1.67 (23:59) 0 0 0 0 0
20-12-2020 7.5 (16:20) 0.2 (00:00) 3.9 3.61 (20:50) 1.67 (13:30) 2.6 2.6 0 0 0
19-12-2020 11.6 (13:20) 5.3 (00:00) 8.5 3.89 (16:50) 1.67 (15:50) 2.8 0 0 0 2.8
18-12-2020 14.4 (15:40) -1.1 (-00:0) 6.6 4.17 (15:40) 2.5 (15:50) 0 0 0 0 0

Gráficas

Temp. máximas Temp. mínimas Temp. medias Precipitaciones Rachas de viento máximas Velocidades máximas media en intervalos de 10 minutos

Datos horarios

Fecha y hora oficial Temperatura (ºC) Velocidad del viento (km/h) Dirección del viento Racha (km/h) Dirección de racha Precipitación (mm) Presión (hPa) Tendencia (hPa) Humedad (%)
2021-01-16 23:00:00 -2.8 0 Calma 5 Norte 0 -- -- 88
2021-01-16 22:00:00 -2 0 Calma 6 Nordeste 0 -- -- 86
2021-01-16 21:00:00 -0.9 3 Norte 8 Norte 0 -- -- 82
2021-01-16 20:00:00 -0.1 3 Sudeste 6 Sudeste 0 -- -- 79
2021-01-16 19:00:00 1.4 2 Sur 6 Sur 0 -- -- 75
2021-01-16 18:00:00 3.7 0 Calma 5 Sudoeste 0 -- -- 64
2021-01-16 17:00:00 6.7 0 Calma 6 Este 0 -- -- 51
2021-01-16 16:00:00 8.7 0 Calma 8 Sudoeste 0 -- -- 40
2021-01-16 15:00:00 9.3 2 Noroeste 9 Este 0 -- -- 39
2021-01-16 14:00:00 8.2 0 Calma 10 Norte 0 -- -- 42
2021-01-16 13:00:00 5.3 5 Nordeste 10 Nordeste 0 -- -- 52
2021-01-16 12:00:00 1.9 2 Nordeste 8 Norte 0 -- -- 66
2021-01-16 11:00:00 -1.1 0 Calma 6 Norte 0 -- -- 78
2021-01-16 10:00:00 -3.4 0 Calma 8 Este 0 -- -- 87
2021-01-16 09:00:00 -5 0 Calma 5 Nordeste 0 -- -- 88
2021-01-16 08:00:00 -4.2 0 Calma 9 Sur 0 -- -- 85
2021-01-16 07:00:00 -3.4 4 Sur 10 Sudeste 0 -- -- 83
2021-01-16 06:00:00 -2.9 3 Sur 14 Sur 0 -- -- 79
2021-01-16 05:00:00 -2 3 Sudeste 12 Sudoeste 0 -- -- 78
2021-01-16 04:00:00 0.1 6 Sudeste 29 Sudoeste 0 -- -- 73
2021-01-16 03:00:00 2 15 Sur 26 Sudoeste 0 -- -- 65
2021-01-16 02:00:00 1.4 10 Sur 24 Sur 0 -- -- 68
2021-01-16 01:00:00 1.2 9 Sur 18 Sur 0 -- -- 65
2021-01-16 00:00:00 1.3 4 Sudeste 17 Sudeste 0 -- -- 64
2021-01-15 23:00:00 1.1 7 Sur 14 Sur 0 -- -- 66
2021-01-15 22:00:00 1 4 Sur 14 Oeste 0 -- -- 65
2021-01-15 21:00:00 2.6 5 Sudeste 13 Norte 0 -- -- 58
2021-01-15 20:00:00 4 3 Norte 17 Noroeste 0 -- -- 54
2021-01-15 19:00:00 4.3 5 Noroeste 31 Oeste 0 -- -- 58
2021-01-15 18:00:00 5.4 16 Oeste 40 Oeste 0 -- -- 55
2021-01-15 17:00:00 7.3 15 Oeste 30 Noroeste 0 -- -- 48
2021-01-15 16:00:00 7.8 12 Noroeste 34 Noroeste 0 -- -- 54
2021-01-15 15:00:00 8.9 15 Oeste 37 Oeste 0 -- -- 51
2021-01-15 14:00:00 9.1 21 Oeste 42 Sudoeste 0 -- -- 42
2021-01-15 13:00:00 7.8 17 Oeste 30 Oeste 0 -- -- 55
2021-01-15 12:00:00 6.8 13 Oeste 33 Oeste 0 -- -- 58
2021-01-15 11:00:00 4.6 7 Nordeste 16 Nordeste 0 -- -- 72
2021-01-15 10:00:00 1.3 3 Nordeste 10 Sudeste 0 -- -- 85
2021-01-15 09:00:00 -0.8 3 Sudeste 11 Oeste 0 -- -- 91
2021-01-15 08:00:00 -0.6 5 Este 14 Nordeste 0 -- -- 90
2021-01-15 07:00:00 -1.5 3 Sudeste 10 Este 0 -- -- 92
2021-01-15 06:00:00 -1.6 4 Este 14 Sudoeste 0 -- -- 96
2021-01-15 05:00:00 -2.3 4 Sur 12 Sudeste 0 -- -- 93
2021-01-15 04:00:00 -1.6 6 Nordeste 15 Sudoeste 0 -- -- 96
2021-01-15 03:00:00 -2.1 5 Este 12 Oeste 0 -- -- 98
2021-01-15 02:00:00 -1.9 3 Sur 10 Este 0 -- -- 97
2021-01-15 01:00:00 -1.7 0 Calma 8 Sur 0 -- -- 96
2021-01-15 00:00:00 -0.8 0 Calma 12 Nordeste 0 -- -- 96
2021-01-14 23:00:00 -0.6 3 Oeste 10 Sudeste 0 -- -- 95
2021-01-14 22:00:00 0.1 6 Sudeste 15 Sur 0 -- -- 96
2021-01-14 21:00:00 0.1 2 Sur 10 Norte 0 -- -- 96
2021-01-14 20:00:00 0.5 5 Oeste 11 Noroeste 0 -- -- 92
2021-01-14 19:00:00 -0.1 3 Sur 8 Sur 0 -- -- 93
2021-01-14 18:00:00 1.3 3 Oeste 6 Sur 0 -- -- 87
2021-01-14 17:00:00 6.4 2 Sur 9 Norte 0 -- -- 68
2021-01-14 16:00:00 7.7 0 Calma 8 Oeste 0 -- -- 62
2021-01-14 15:00:00 8.1 3 Oeste 8 Noroeste 0 -- -- 58
2021-01-14 14:00:00 5.1 3 Nordeste 6 Norte 0 -- -- 82
2021-01-14 13:00:00 -1.2 5 Norte 7 Norte 0 -- -- 96
2021-01-14 12:00:00 -4.4 0 Calma 4 Nordeste 0 -- -- 96
2021-01-14 11:00:00 -7.4 0 Calma 2 Norte 0 -- -- 94
2021-01-14 10:00:00 -9.2 0 Calma 6 Oeste 0 -- -- 92
2021-01-14 09:00:00 -9.9 0 Calma 4 Norte 0 -- -- 93
2021-01-14 08:00:00 -10.5 2 Oeste 5 Oeste 0 -- -- 91
2021-01-14 07:00:00 -10 0 Calma 5 Oeste 0 -- -- 92
2021-01-14 06:00:00 -9.5 4 Oeste 6 Oeste 0 -- -- 93
2021-01-14 05:00:00 -9 3 Oeste 6 Sudoeste 0 -- -- 93
2021-01-14 04:00:00 -7.7 0 Calma 6 Oeste 0 -- -- 95
2021-01-14 03:00:00 -8.1 5 Oeste 8 Oeste 0 -- -- 93
2021-01-14 02:00:00 -7 3 Oeste 6 Oeste 0 -- -- 95
2021-01-14 01:00:00 -6.8 4 Oeste 8 Oeste 0 -- -- 95
2021-01-14 00:00:00 -6.7 4 Oeste 9 Oeste 0 -- -- 95
2021-01-13 23:00:00 -6 3 Oeste 8 Oeste 0 -- -- 96
2021-01-13 22:00:00 -5.7 3 Oeste 5 Oeste 0 -- -- 95
2021-01-13 21:00:00 -4.4 0 Calma 6 Oeste 0 -- -- 96
2021-01-13 20:00:00 -3 0 Calma 5 Oeste 0 -- -- 95
2021-01-13 19:00:00 -1.5 0 Calma 7 Sur 0 -- -- 94
2021-01-13 18:00:00 0.5 0 Calma 7 Sudoeste 0 -- -- 90
2021-01-13 17:00:00 4.7 0 Calma 4 Sudoeste 0 -- -- 75
2021-01-13 16:00:00 7.8 0 Calma 6 Oeste 0 -- -- 64
2021-01-13 15:00:00 7.1 3 Sudoeste 6 Oeste 0 -- -- 63
2021-01-13 14:00:00 4.3 4 Norte 9 Norte 0 -- -- 70
2021-01-13 13:00:00 0.1 0 Calma 8 Norte 0 -- -- 92
2021-01-13 12:00:00 -3.7 0 Calma 8 Oeste 0 -- -- 96
2021-01-13 11:00:00 -6.9 0 Calma 4 Norte 0 -- -- 93
2021-01-13 10:00:00 -8.9 0 Calma 6 Sudoeste 0 -- -- 92
2021-01-13 09:00:00 -9.6 0 Calma 4 Este 0 -- -- 92
2021-01-13 08:00:00 -10 3 Norte 8 Oeste 0 -- -- 93
2021-01-13 07:00:00 -10.5 0 Calma 8 Oeste 0 -- -- 91
2021-01-13 06:00:00 -10.2 3 Oeste 11 Oeste 0 -- -- 92
2021-01-13 05:00:00 -10.1 2 Oeste 10 Oeste 0 -- -- 92
2021-01-13 04:00:00 -10.2 2 Oeste 8 Oeste 0 -- -- 92
2021-01-13 03:00:00 -9.3 0 Calma 6 Oeste 0 -- -- 93
2021-01-13 02:00:00 -8.9 0 Calma 9 Sudoeste 0 -- -- 93
2021-01-13 01:00:00 -8.6 2 Oeste 9 Oeste 0 -- -- 92
2021-01-13 00:00:00 -7.9 0 Calma 8 Oeste 0 -- -- 92
2021-01-12 23:00:00 -7.3 0 Calma 10 Oeste 0 -- -- 92
2021-01-12 22:00:00 -7.2 0 Calma 8 Oeste 0 -- -- 92
2021-01-12 21:00:00 -6.4 0 Calma 5 Oeste 0 -- -- 93
2021-01-12 20:00:00 -5.4 0 Calma 9 Sudoeste 0 -- -- 91
2021-01-12 19:00:00 -4 0 Calma 7 Sudoeste 0 -- -- 90
2021-01-12 18:00:00 -2.4 3 Sudoeste 9 Sudoeste 0 -- -- 85
2021-01-12 17:00:00 2.1 0 Calma 5 Sudeste 0 -- -- 66
2021-01-12 16:00:00 4.6 0 Calma 6 Este 0 -- -- 57
2021-01-12 15:00:00 5.1 3 Este 6 Este 0 -- -- 51
2021-01-12 14:00:00 3.5 0 Calma 4 Nordeste 0 -- -- 56
2021-01-12 13:00:00 -4 2 Nordeste 5 Nordeste 0 -- -- 91
2021-01-12 12:00:00 -7.6 0 Calma -- -- 0 -- -- 93
2021-01-12 11:00:00 -10.8 0 Calma -- -- 0 -- -- 90
2021-01-12 10:00:00 -13.2 0 Calma -- -- 0 -- -- 89
2021-01-12 09:00:00 -14.6 0 Calma -- -- 0 -- -- 88
2021-01-12 08:00:00 -15 0 Calma -- -- 0 -- -- 88
2021-01-12 07:00:00 -13.9 0 Calma -- -- 0 -- -- 89
2021-01-12 06:00:00 -14.4 0 Calma -- -- 0 -- -- 89
2021-01-12 05:00:00 -13.9 0 Calma -- -- 0 -- -- 89
2021-01-12 04:00:00 -13.4 0 Calma -- -- 0 -- -- 89
2021-01-12 03:00:00 -13.1 0 Calma -- -- 0 -- -- 90
2021-01-12 02:00:00 -13.2 0 Calma -- -- 0 -- -- 90
2021-01-12 01:00:00 -12.9 0 Calma -- -- 0 -- -- 89
2021-01-12 00:00:00 -12.4 0 Calma -- -- 0 -- -- 90
2021-01-11 23:00:00 -11.9 0 Calma -- -- 0 -- -- 91
2021-01-11 22:00:00 -10.8 0 Calma -- -- 0 -- -- 91
2021-01-11 21:00:00 -10 0 Calma -- -- 0 -- -- 90
2021-01-11 20:00:00 -9.1 0 Calma -- -- 0 -- -- 88
2021-01-11 19:00:00 -6.7 0 Calma 6 Oeste 0 -- -- 89
2021-01-11 18:00:00 -4.3 5 Sudoeste 10 Sudoeste 0 -- -- 84
2021-01-11 17:00:00 -0.6 0 Calma 8 Oeste 0 -- -- 70
2021-01-11 16:00:00 2.5 3 Sudeste 5 Sudoeste 0 -- -- 55
2021-01-11 15:00:00 3.5 2 Sudeste 6 Este 0 -- -- 49
2021-01-11 14:00:00 2.5 2 Oeste 6 Sudoeste 0 -- -- 56
2021-01-11 13:00:00 -2.4 2 Este 8 Este 0 -- -- 76
2021-01-11 12:00:00 -5.4 2 Este 7 Este 0 -- -- 85
2021-01-11 11:00:00 -8.7 0 Calma -- -- 0 -- -- 87
2021-01-11 10:00:00 -11.1 0 Calma -- -- 0 -- -- 89
2021-01-11 09:00:00 -11.9 0 Calma -- -- 0 -- -- 90
2021-01-11 08:00:00 -11.3 0 Calma -- -- 0 -- -- 90
2021-01-11 07:00:00 -9 0 Calma -- -- 0 -- -- 91
2021-01-11 06:00:00 -6.5 0 Calma -- -- 0 -- -- 88
2021-01-11 05:00:00 -5.1 0 Calma -- -- 0 -- -- 87
2021-01-11 04:00:00 -3.7 0 Calma -- -- 0 -- -- 86
2021-01-11 03:00:00 -3.4 0 Calma -- -- 0 -- -- 85
2021-01-11 02:00:00 -3.4 0 Calma -- -- 0 -- -- 86
2021-01-11 01:00:00 -3 0 Calma -- -- 0 -- -- 86
2021-01-11 00:00:00 -3 0 Calma -- -- 0 -- -- 87
2021-01-10 23:00:00 -2.7 0 Calma -- -- 0 -- -- 86
2021-01-10 22:00:00 -2 0 Calma -- -- 0 -- -- 85
2021-01-10 21:00:00 -1.5 0 Calma -- -- 0 -- -- 86
2021-01-10 20:00:00 -0.4 0 Calma -- -- 0 -- -- 85
2021-01-10 19:00:00 0.1 0 Calma -- -- 0 -- -- 89
2021-01-10 18:00:00 0.1 2 Oeste 9 Oeste 0 -- -- 88
2021-01-10 17:00:00 0.9 0 Calma 2 Sudoeste 0 -- -- 85
2021-01-10 16:00:00 1.8 0 Calma 8 Oeste 0 -- -- 83
2021-01-10 15:00:00 2.1 0 Calma 5 Este 0 -- -- 83
2021-01-10 14:00:00 2.8 0 Calma 0 Calma 0.2 -- -- 81
2021-01-10 13:00:00 1.5 0 Calma 0 Calma 0.2 -- -- 87
2021-01-10 12:00:00 1.9 0 Calma 0 Calma 0.2 -- -- 87
2021-01-10 11:00:00 0.4 0 Calma -- -- 0.2 -- -- 89
2021-01-10 10:00:00 -1.4 0 Calma -- -- 0 -- -- 95
2021-01-10 09:00:00 -2.3 0 Calma -- -- 0 -- -- 96
2021-01-10 08:00:00 -2.4 0 Calma -- -- 0 -- -- 96
2021-01-10 07:00:00 -2.4 0 Calma -- -- 0 -- -- 97
2021-01-10 06:00:00 -2.2 0 Calma -- -- 0 -- -- 97
2021-01-10 05:00:00 -2 0 Calma -- -- 0.2 -- -- 97
2021-01-10 04:00:00 -2 0 Calma -- -- 0.2 -- -- 98
2021-01-10 03:00:00 -1.9 0 Calma -- -- 0.2 -- -- 97
2021-01-10 02:00:00 -1.9 0 Calma -- -- 0.8 -- -- 97
2021-01-10 01:00:00 -1.9 0 Calma -- -- 0.6 -- -- 97
2021-01-10 00:00:00 -1.7 0 Calma -- -- 0.8 -- -- 97
2021-01-09 23:00:00 -1.6 0 Calma -- -- 0.8 -- -- 97
2021-01-09 22:00:00 -1.7 0 Calma -- -- 0.6 -- -- 96
2021-01-09 21:00:00 -1.8 0 Calma -- -- 1 -- -- 96
2021-01-09 20:00:00 -1.8 0 Calma -- -- 0.2 -- -- 95
2021-01-09 19:00:00 -1.8 0 Calma -- -- 0.2 -- -- 95
2021-01-09 18:00:00 -1.8 0 Calma -- -- 0.8 -- -- 94
2021-01-09 17:00:00 -1.1 0 Calma -- -- 0.4 -- -- 90
2021-01-09 16:00:00 -0.8 0 Calma -- -- 0.4 -- -- 88
2021-01-09 15:00:00 -0.8 0 Calma -- -- 0.8 -- -- 87
2021-01-09 14:00:00 -0.9 0 Calma -- -- 1 -- -- 89
2021-01-09 13:00:00 -1.5 0 Calma -- -- 1.6 -- -- 91
2021-01-09 12:00:00 -1.7 0 Calma -- -- 0.8 -- -- 90
2021-01-09 11:00:00 -1.6 0 Calma -- -- 0.4 -- -- 90
2021-01-09 10:00:00 -2.2 0 Calma -- -- 0.4 -- -- 93
2021-01-09 09:00:00 -3 0 Calma -- -- 1 -- -- 94
2021-01-09 08:00:00 -3.1 0 Calma -- -- 0.6 -- -- 94
2021-01-09 07:00:00 -3 0 Calma 3 Sudoeste 0 -- -- 93
2021-01-09 06:00:00 -3 0 Calma 3 Sudeste 0.4 -- -- 92
2021-01-09 05:00:00 -2.7 0 Calma 5 Nordeste 0 -- -- 90
2021-01-09 04:00:00 -2.7 0 Calma 4 Oeste 0 -- -- 87
2021-01-09 03:00:00 -2.5 3 Sudoeste 12 Sudoeste 0 -- -- 81
2021-01-09 02:00:00 -2.6 0 Calma 5 Sur 0 -- -- 85
2021-01-09 01:00:00 -2.7 0 Calma 6 Sur 0 -- -- 87
2021-01-09 00:00:00 -2.7 2 Norte 9 Sudoeste 0 -- -- 84
2021-01-08 23:00:00 -3 2 Sudoeste 8 Sudoeste 0 -- -- 81
2021-01-08 22:00:00 -2.8 3 Sudoeste 6 Sudoeste 0 -- -- 79
2021-01-08 21:00:00 -2.5 4 Oeste 7 Sudoeste 0 -- -- 77
2021-01-08 20:00:00 -2.3 0 Calma 5 Norte 0 -- -- 77
2021-01-08 19:00:00 -1.9 0 Calma 3 Sudeste 0 -- -- 76
2021-01-08 18:00:00 -1.1 0 Calma 5 Sudoeste 0 -- -- 68
2021-01-08 17:00:00 -0.1 0 Calma 8 Norte 0 -- -- 59
2021-01-08 16:00:00 0.8 2 Norte 5 Norte 0 -- -- 54
2021-01-08 15:00:00 0.5 3 Oeste 8 Oeste 0 -- -- 57
2021-01-08 14:00:00 -1 4 Sudoeste 8 Oeste 0 -- -- 65
2021-01-08 13:00:00 -2.8 2 Norte 5 Nordeste 0 -- -- 70
2021-01-08 12:00:00 -5.6 0 Calma 4 Norte 0 -- -- 82
2021-01-08 11:00:00 -8.4 0 Calma 3 Oeste 0 -- -- 88
2021-01-08 10:00:00 -12.2 3 Oeste 5 Oeste 0 -- -- 87
2021-01-08 09:00:00 -13.7 2 Oeste 5 Oeste 0 -- -- 88
2021-01-08 08:00:00 -13.9 3 Oeste 6 Oeste 0 -- -- 88
2021-01-08 07:00:00 -13.4 0 Calma 4 Sudoeste 0 -- -- 88
2021-01-08 06:00:00 -13.1 0 Calma 5 Oeste 0 -- -- 88
2021-01-08 05:00:00 -12.3 0 Calma 7 Sudoeste 0 -- -- 88
2021-01-08 04:00:00 -11.9 0 Calma 5 Oeste 0 -- -- 88
2021-01-08 03:00:00 -11.1 0 Calma 8 Oeste 0 -- -- 90
2021-01-08 02:00:00 -10.8 2 Sudoeste 8 Sudoeste 0 -- -- 89
2021-01-08 01:00:00 -10.4 0 Calma 6 Oeste 0 -- -- 90
2021-01-08 00:00:00 -9.6 0 Calma 6 Oeste 0 -- -- 89
2021-01-07 23:00:00 -8.5 0 Calma 5 Sudoeste 0 -- -- 89
2021-01-07 22:00:00 -7.2 3 Oeste 6 Oeste 0 -- -- 88
2021-01-07 21:00:00 -5.6 2 Oeste 9 Sudoeste 0 -- -- 85
2021-01-07 20:00:00 -4 0 Calma 9 Oeste 0 -- -- 82
2021-01-07 19:00:00 -3 0 Calma 6 Sudoeste 0 -- -- 81
2021-01-07 18:00:00 -2 0 Calma 8 Sudoeste 0 -- -- 76
2021-01-07 17:00:00 -1.1 0 Calma 5 Este 0 -- -- 72
2021-01-07 16:00:00 -1.1 3 Sudoeste 9 Oeste 0 -- -- 68
2021-01-07 15:00:00 -0.5 0 Calma 6 Oeste 0 -- -- 70
2021-01-07 14:00:00 -2.2 7 Oeste 9 Oeste 0 -- -- 74
2021-01-07 13:00:00 -2.8 0 Calma 8 Sudoeste 0 -- -- 78
2021-01-07 12:00:00 -4.6 3 Oeste 6 Sudoeste 0 -- -- 83
2021-01-07 11:00:00 -6.8 0 Calma 7 Oeste 0 -- -- 88
2021-01-07 10:00:00 -8.9 3 Oeste 7 Oeste 0 -- -- 90
2021-01-07 09:00:00 -10.3 2 Oeste 6 Oeste 0 -- -- 89
2021-01-07 08:00:00 -10.7 4 Oeste 5 Oeste 0 -- -- 88
2021-01-07 07:00:00 -10.7 0 Calma 5 Oeste 0 -- -- 89
2021-01-07 06:00:00 -10.7 2 Sudoeste 6 Sudoeste 0 -- -- 90
2021-01-07 05:00:00 -9.8 0 Calma 5 Oeste 0 -- -- 90
2021-01-07 04:00:00 -10.1 2 Oeste 8 Oeste 0 -- -- 92
2021-01-07 03:00:00 -9.8 0 Calma 8 Oeste 0 -- -- 91
2021-01-07 02:00:00 -9.8 2 Sudoeste 7 Sudoeste 0 -- -- 92
2021-01-07 01:00:00 -9.5 3 Oeste 6 Sudoeste 0 -- -- 91
2021-01-07 00:00:00 -8.7 0 Calma 4 Sudoeste 0 -- -- 91
2021-01-06 23:00:00 -8 0 Calma 6 Oeste 0 -- -- 90
2021-01-06 22:00:00 -7.5 0 Calma 7 Oeste 0 -- -- 90
2021-01-06 21:00:00 -6.2 0 Calma 5 Sudoeste 0 -- -- 90
2021-01-06 20:00:00 -5.2 0 Calma 5 Oeste 0 -- -- 89
2021-01-06 19:00:00 -3.6 0 Calma 6 Sudeste 0 -- -- 86
2021-01-06 18:00:00 -2.2 2 Sudeste 5 Sudeste 0 -- -- 84
2021-01-06 17:00:00 0.4 2 Sudoeste 9 Oeste 0 -- -- 72
2021-01-06 16:00:00 1.7 6 Oeste 12 Sudoeste 0 -- -- 67
2021-01-06 15:00:00 2.5 5 Sudoeste 10 Sudoeste 0 -- -- 61
2021-01-06 14:00:00 1.9 3 Nordeste 7 Sudeste 0 -- -- 61
2021-01-06 13:00:00 -1.3 0 Calma 7 Nordeste 0 -- -- 75
2021-01-06 12:00:00 -3.4 0 Calma 8 Sudeste 0 -- -- 82
2021-01-06 11:00:00 -5.4 2 Este 5 Este 0 -- -- 89
2021-01-06 10:00:00 -6.8 0 Calma 6 Norte 0 -- -- 88
2021-01-06 09:00:00 -7.6 0 Calma 7 Noroeste 0 -- -- 89
2021-01-06 08:00:00 -6.6 4 Norte 7 Norte 0 -- -- 90
2021-01-06 07:00:00 -7 0 Calma 3 Sur 0 -- -- 93
2021-01-06 06:00:00 -8.5 2 Norte 5 Oeste 0 -- -- 93
2021-01-06 05:00:00 -10 0 Calma 8 Oeste 0 -- -- 91
2021-01-06 04:00:00 -10.8 3 Sudoeste 5 Sudoeste 0 -- -- 89
2021-01-06 03:00:00 -10.2 2 Oeste 8 Oeste 0 -- -- 89
2021-01-06 02:00:00 -9.6 5 Oeste 8 Oeste 0 -- -- 90
2021-01-06 01:00:00 -9 0 Calma 5 Sudoeste 0 -- -- 91
2021-01-06 00:00:00 -7.8 2 Sudoeste 5 Oeste 0 -- -- 92
2021-01-05 23:00:00 -6.8 0 Calma 8 Sudoeste 0 -- -- 92
2021-01-05 22:00:00 -6 4 Sudoeste 8 Oeste 0 -- -- 91
2021-01-05 21:00:00 -4.3 0 Calma 4 Este 0 -- -- 92
2021-01-05 20:00:00 -3.4 2 Sudeste 9 Noroeste 0 -- -- 87
2021-01-05 19:00:00 -2 4 Sudoeste 13 Oeste 0 -- -- 82
2021-01-05 18:00:00 -0.7 6 Oeste 13 Noroeste 0 -- -- 78
2021-01-05 17:00:00 0.8 8 Oeste 19 Oeste 0 -- -- 74
2021-01-05 16:00:00 1.3 3 Sudeste 8 Este 0 -- -- 79
2021-01-05 15:00:00 1.4 4 Este 9 Oeste 0 -- -- 78
2021-01-05 14:00:00 0.8 6 Oeste 12 Oeste 0 -- -- 78
2021-01-05 13:00:00 0.6 2 Sudoeste 12 Sudoeste 0 -- -- 78
2021-01-05 12:00:00 -0.5 3 Sudeste 6 Sudeste 0 -- -- 83
2021-01-05 11:00:00 -1.9 0 Calma 9 Norte 0 -- -- 82
2021-01-05 10:00:00 -3.2 5 Norte 10 Norte 0 -- -- 86
2021-01-05 09:00:00 -3.7 5 Norte 8 Noroeste 0 -- -- 90
2021-01-05 08:00:00 -4.1 5 Nordeste 9 Noroeste 0 -- -- 88
2021-01-05 07:00:00 -4.4 0 Calma 10 Norte 0 -- -- 89
2021-01-05 06:00:00 -3.6 4 Noroeste 9 Nordeste 0 -- -- 87
2021-01-05 05:00:00 -3.7 0 Calma 10 Noroeste 0 -- -- 85
2021-01-05 04:00:00 -3 5 Norte 9 Noroeste 0 -- -- 86
2021-01-05 03:00:00 -2.4 4 Norte 13 Noroeste 0 -- -- 87
2021-01-05 02:00:00 -1.7 0 Calma 16 Noroeste 0 -- -- 91
2021-01-05 01:00:00 -1.4 0 Calma 12 Oeste 0 -- -- 88
2021-01-05 00:00:00 -0.9 6 Sudoeste 13 Oeste 0 -- -- 92
2021-01-04 23:00:00 -0.9 8 Oeste 18 Oeste 0 -- -- 93
2021-01-04 22:00:00 -0.8 5 Sudoeste 10 Oeste 0 -- -- 94
2021-01-04 21:00:00 -0.9 0 Calma 3 Nordeste 0 -- -- 94
2021-01-04 20:00:00 -1 0 Calma 4 Sudoeste 0 -- -- 93
2021-01-04 19:00:00 -0.9 0 Calma 11 Oeste 0.2 -- -- 93
2021-01-04 18:00:00 -0.6 4 Sudoeste 12 Oeste 0 -- -- 89
2021-01-04 17:00:00 -0.2 8 Oeste 16 Noroeste 0 -- -- 88
2021-01-04 16:00:00 0.1 10 Noroeste 18 Norte 0 -- -- 86
2021-01-04 15:00:00 0.9 7 Oeste 15 Oeste 0.2 -- -- 83
2021-01-04 14:00:00 0.2 3 Oeste 12 Sudoeste 0.8 -- -- 90
2021-01-04 13:00:00 -0.3 5 Sudoeste 10 Sudoeste 0.4 -- -- 89
2021-01-04 12:00:00 0 0 Calma 4 Noroeste 0.4 -- -- 90
2021-01-04 11:00:00 -0.9 0 Calma 6 Noroeste 0 -- -- 90
2021-01-04 10:00:00 -1.5 0 Calma 5 Norte 0 -- -- 88
2021-01-04 09:00:00 -1.9 3 Norte 10 Norte 0 -- -- 85
2021-01-04 08:00:00 -1.9 5 Norte 9 Norte 0 -- -- 86
2021-01-04 07:00:00 -1.6 0 Calma 6 Norte 0 -- -- 86
2021-01-04 06:00:00 -1.5 5 Norte 10 Norte 0 -- -- 88
2021-01-04 05:00:00 -1.4 0 Calma 8 Sur 0 -- -- 93
2021-01-04 04:00:00 -1.3 4 Nordeste 8 Nordeste 0 -- -- 94
2021-01-04 03:00:00 -1.7 0 Calma 13 Sur 0 -- -- 94
2021-01-04 02:00:00 -1 6 Noroeste 10 Noroeste 0 -- -- 93
2021-01-04 01:00:00 -0.3 9 Noroeste 13 Noroeste 0 -- -- 92
2021-01-04 00:00:00 0.2 0 Calma 13 Oeste 0 -- -- 88
2021-01-03 23:00:00 0 0 Calma 5 Norte 0 -- -- 88
2021-01-03 22:00:00 -0.1 3 Noroeste 10 Noroeste 0 -- -- 86
2021-01-03 21:00:00 0.4 0 Calma 7 Norte 0 -- -- 89
2021-01-03 20:00:00 0.5 4 Nordeste 7 Nordeste 0 -- -- 85
2021-01-03 19:00:00 0.3 2 Noroeste 9 Nordeste 0 -- -- 82
2021-01-03 18:00:00 1.3 4 Norte 23 Oeste 0 -- -- 75
2021-01-03 17:00:00 2.3 15 Sudoeste 27 Sudoeste 0 -- -- 66
2021-01-03 16:00:00 3.6 11 Oeste 26 Oeste 0 -- -- 64
2021-01-03 15:00:00 4.8 13 Sudoeste 22 Sudoeste 0 -- -- 55
2021-01-03 14:00:00 4 5 Nordeste 12 Este 0 -- -- 59
2021-01-03 13:00:00 1.7 3 Este 10 Nordeste 0 -- -- 64
2021-01-03 12:00:00 -0.5 2 Sudeste 8 Este 0 -- -- 70
2021-01-03 11:00:00 -2.6 0 Calma 6 Sur 0 -- -- 75
2021-01-03 10:00:00 -4.9 2 Sur 5 Sur 0 -- -- 81
2021-01-03 09:00:00 -7.2 3 Sur 8 Sudoeste 0 -- -- 87
2021-01-03 08:00:00 -6.7 3 Sudoeste 8 Sur 0 -- -- 85
2021-01-03 07:00:00 -6.4 4 Sudoeste 9 Sur 0 -- -- 85
2021-01-03 06:00:00 -5.7 3 Sur 9 Sur 0 -- -- 83
2021-01-03 05:00:00 -5 3 Sudeste 10 Sudeste 0 -- -- 79
2021-01-03 04:00:00 -4.1 3 Sur 10 Sur 0 -- -- 75
2021-01-03 03:00:00 -3.1 0 Calma 17 Sur 0 -- -- 68
2021-01-03 02:00:00 -2.3 4 Sur 15 Sudoeste 0 -- -- 64
2021-01-03 01:00:00 -2 5 Sudoeste 16 Sur 0 -- -- 62
2021-01-03 00:00:00 -2 5 Sudoeste 11 Sudoeste 0 -- -- 60
2021-01-02 23:00:00 -1.5 5 Noroeste 18 Oeste 0 -- -- 58
2021-01-02 22:00:00 -0.9 10 Oeste 31 Oeste 0 -- -- 54
2021-01-02 21:00:00 -0.7 14 Oeste 32 Oeste 0 -- -- 49
2021-01-02 20:00:00 -0.3 14 Sudoeste 26 Sudoeste 0 -- -- 46
2021-01-02 19:00:00 0 2 Oeste 22 Oeste 0 -- -- 47
2021-01-02 18:00:00 0.8 11 Sudoeste 19 Sudoeste 0 -- -- 45
2021-01-02 17:00:00 2.3 5 Sudoeste 24 Sudoeste 0 -- -- 38
2021-01-02 16:00:00 2.9 4 Oeste 21 Oeste 0 -- -- 41
2021-01-02 15:00:00 4.3 6 Sudoeste 22 Sudoeste 0 -- -- 40
2021-01-02 14:00:00 4.2 12 Sudoeste 17 Sudoeste 0 -- -- 50